Meriden, Minnesota
Current Conditions -  °F | °C
As of 2:14 PM on Wednesday 28 Jan 2015 (Local Time) from KACQ Reporting Station
Haze Haze  
Wind Chill: 21°   Ceiling: 500
Heat Index: 32°   Visibility: 2.5mi
Dew Point: 30°   Wind: 16mph
Humidity: 93%   Direction: 140°SE
Pressure: 29.79"   Gusts: 22mph
Location:  44.0806°N, 93.5062°W
Report Text: KACQ 282014Z AUTO 14014G19KT 2 1/2SM BR OVC005 00/M01 A2979 RMK AO2
Loading
Personal Weather Stations






























Interactive Weather Map New forecast layout! Learn more

10-Day Weather Forecast

Advertisements
Track Severe Weather on mobile